sensor_id;sensor_type;location;lat;lon;timestamp;pressure;altitude;pressure_sealevel;temperature
67758;BMP180;54562;47.620;18.786;2022-11-20T00:01:11;98041.80;;;-0.10
67758;BMP180;54562;47.620;18.786;2022-11-20T00:04:20;98026.20;;;-0.10
67758;BMP180;54562;47.620;18.786;2022-11-20T00:07:28;98016.40;;;-0.10
67758;BMP180;54562;47.620;18.786;2022-11-20T00:10:39;98014.20;;;-0.10
67758;BMP180;54562;47.620;18.786;2022-11-20T00:13:50;98029.80;;;-0.10
67758;BMP180;54562;47.620;18.786;2022-11-20T00:16:59;98026.20;;;-0.10
67758;BMP180;54562;47.620;18.786;2022-11-20T00:20:09;98029.80;;;-0.10
67758;BMP180;54562;47.620;18.786;2022-11-20T00:23:18;98035.80;;;-0.16
67758;BMP180;54562;47.620;18.786;2022-11-20T00:26:28;98034.40;;;-0.20
67758;BMP180;54562;47.620;18.786;2022-11-20T00:29:36;98034.20;;;-0.20
67758;BMP180;54562;47.620;18.786;2022-11-20T00:32:46;98028.20;;;-0.20
67758;BMP180;54562;47.620;18.786;2022-11-20T00:35:56;98028.60;;;-0.14
67758;BMP180;54562;47.620;18.786;2022-11-20T00:39:07;98026.60;;;-0.16
67758;BMP180;54562;47.620;18.786;2022-11-20T00:42:14;98031.60;;;-0.10
67758;BMP180;54562;47.620;18.786;2022-11-20T00:45:23;98038.00;;;-0.10
67758;BMP180;54562;47.620;18.786;2022-11-20T00:48:31;98043.00;;;-0.10
67758;BMP180;54562;47.620;18.786;2022-11-20T00:51:40;98053.40;;;-0.10
67758;BMP180;54562;47.620;18.786;2022-11-20T00:54:51;98050.40;;;-0.10
67758;BMP180;54562;47.620;18.786;2022-11-20T00:57:59;98053.00;;;-0.10
67758;BMP180;54562;47.620;18.786;2022-11-20T01:01:13;98056.20;;;-0.10
67758;BMP180;54562;47.620;18.786;2022-11-20T01:04:21;98064.00;;;-0.10
67758;BMP180;54562;47.620;18.786;2022-11-20T01:07:29;98068.60;;;-0.10
67758;BMP180;54562;47.620;18.786;2022-11-20T01:10:39;98067.60;;;-0.10
67758;BMP180;54562;47.620;18.786;2022-11-20T01:13:50;98060.80;;;-0.08
67758;BMP180;54562;47.620;18.786;2022-11-20T01:16:59;98067.20;;;0.00
67758;BMP180;54562;47.620;18.786;2022-11-20T01:20:11;98063.00;;;0.00
67758;BMP180;54562;47.620;18.786;2022-11-20T01:23:19;98068.20;;;0.00
67758;BMP180;54562;47.620;18.786;2022-11-20T01:26:30;98065.20;;;0.10
67758;BMP180;54562;47.620;18.786;2022-11-20T01:29:38;98053.60;;;0.10
67758;BMP180;54562;47.620;18.786;2022-11-20T01:32:50;98051.20;;;0.10
67758;BMP180;54562;47.620;18.786;2022-11-20T01:36:08;98053.40;;;0.16
67758;BMP180;54562;47.620;18.786;2022-11-20T01:39:20;98046.00;;;0.20
67758;BMP180;54562;47.620;18.786;2022-11-20T01:42:29;98044.40;;;0.20
67758;BMP180;54562;47.620;18.786;2022-11-20T01:46:05;98044.20;;;0.20
67758;BMP180;54562;47.620;18.786;2022-11-20T01:49:21;98044.60;;;0.20
67758;BMP180;54562;47.620;18.786;2022-11-20T01:52:36;98044.40;;;0.22
67758;BMP180;54562;47.620;18.786;2022-11-20T01:55:51;98035.20;;;0.26
67758;BMP180;54562;47.620;18.786;2022-11-20T01:59:05;98015.00;;;0.26
67758;BMP180;54562;47.620;18.786;2022-11-20T02:02:15;98009.00;;;0.22
67758;BMP180;54562;47.620;18.786;2022-11-20T02:05:31;98008.60;;;0.20
67758;BMP180;54562;47.620;18.786;2022-11-20T02:08:40;98005.40;;;0.20
67758;BMP180;54562;47.620;18.786;2022-11-20T02:11:49;98014.60;;;0.20
67758;BMP180;54562;47.620;18.786;2022-11-20T02:14:58;98014.00;;;0.20
67758;BMP180;54562;47.620;18.786;2022-11-20T02:18:06;97996.80;;;0.20
67758;BMP180;54562;47.620;18.786;2022-11-20T02:21:27;97982.20;;;0.20
67758;BMP180;54562;47.620;18.786;2022-11-20T02:24:36;97984.40;;;0.20
67758;BMP180;54562;47.620;18.786;2022-11-20T02:27:46;97977.20;;;0.22
67758;BMP180;54562;47.620;18.786;2022-11-20T02:30:54;97987.60;;;0.30
67758;BMP180;54562;47.620;18.786;2022-11-20T02:34:02;97987.80;;;0.30
67758;BMP180;54562;47.620;18.786;2022-11-20T02:37:10;97994.80;;;0.30
67758;BMP180;54562;47.620;18.786;2022-11-20T02:40:19;97986.20;;;0.40
67758;BMP180;54562;47.620;18.786;2022-11-20T02:43:27;97989.80;;;0.40
67758;BMP180;54562;47.620;18.786;2022-11-20T02:46:35;97988.40;;;0.50
67758;BMP180;54562;47.620;18.786;2022-11-20T02:49:45;97990.20;;;0.52
67758;BMP180;54562;47.620;18.786;2022-11-20T02:52:53;97990.40;;;0.60
67758;BMP180;54562;47.620;18.786;2022-11-20T02:56:02;97992.60;;;0.60
67758;BMP180;54562;47.620;18.786;2022-11-20T02:59:10;98005.20;;;0.60
67758;BMP180;54562;47.620;18.786;2022-11-20T03:02:18;98006.20;;;0.66
67758;BMP180;54562;47.620;18.786;2022-11-20T03:05:27;98003.80;;;0.70
67758;BMP180;54562;47.620;18.786;2022-11-20T03:08:35;98007.00;;;0.70
67758;BMP180;54562;47.620;18.786;2022-11-20T03:11:43;98000.80;;;0.70
67758;BMP180;54562;47.620;18.786;2022-11-20T03:14:52;97993.40;;;0.70
67758;BMP180;54562;47.620;18.786;2022-11-20T03:18:02;97996.40;;;0.70
67758;BMP180;54562;47.620;18.786;2022-11-20T03:21:12;97993.00;;;0.70
67758;BMP180;54562;47.620;18.786;2022-11-20T03:24:21;98008.40;;;0.70
67758;BMP180;54562;47.620;18.786;2022-11-20T03:27:33;98016.00;;;0.70
67758;BMP180;54562;47.620;18.786;2022-11-20T03:30:41;98020.00;;;0.72
67758;BMP180;54562;47.620;18.786;2022-11-20T03:33:50;98023.00;;;0.70
67758;BMP180;54562;47.620;18.786;2022-11-20T03:36:58;98019.40;;;0.70
67758;BMP180;54562;47.620;18.786;2022-11-20T03:40:10;98020.80;;;0.76
67758;BMP180;54562;47.620;18.786;2022-11-20T03:43:19;98026.80;;;0.72
67758;BMP180;54562;47.620;18.786;2022-11-20T03:46:28;98033.00;;;0.80
67758;BMP180;54562;47.620;18.786;2022-11-20T03:49:36;98024.40;;;0.80
67758;BMP180;54562;47.620;18.786;2022-11-20T03:52:44;98020.00;;;0.80
67758;BMP180;54562;47.620;18.786;2022-11-20T03:55:55;98007.80;;;0.84
67758;BMP180;54562;47.620;18.786;2022-11-20T03:59:03;98020.20;;;0.90
67758;BMP180;54562;47.620;18.786;2022-11-20T04:05:43;98008.00;;;0.92
67758;BMP180;54562;47.620;18.786;2022-11-20T04:08:53;98005.40;;;0.92
67758;BMP180;54562;47.620;18.786;2022-11-20T04:12:01;98005.00;;;0.92
67758;BMP180;54562;47.620;18.786;2022-11-20T04:15:11;98004.80;;;0.90
67758;BMP180;54562;47.620;18.786;2022-11-20T04:18:19;97999.80;;;0.90
67758;BMP180;54562;47.620;18.786;2022-11-20T04:21:29;98003.00;;;0.90
67758;BMP180;54562;47.620;18.786;2022-11-20T04:24:37;98002.60;;;0.92
67758;BMP180;54562;47.620;18.786;2022-11-20T04:27:46;97981.80;;;0.92
67758;BMP180;54562;47.620;18.786;2022-11-20T04:30:55;97966.60;;;0.90
67758;BMP180;54562;47.620;18.786;2022-11-20T04:34:15;97962.20;;;0.90
67758;BMP180;54562;47.620;18.786;2022-11-20T04:37:23;97963.00;;;0.90
67758;BMP180;54562;47.620;18.786;2022-11-20T04:40:40;97958.20;;;0.80
67758;BMP180;54562;47.620;18.786;2022-11-20T04:43:52;97966.80;;;0.80
67758;BMP180;54562;47.620;18.786;2022-11-20T04:47:06;97969.60;;;0.74
67758;BMP180;54562;47.620;18.786;2022-11-20T04:50:14;97966.80;;;0.70
67758;BMP180;54562;47.620;18.786;2022-11-20T04:53:24;97957.40;;;0.70
67758;BMP180;54562;47.620;18.786;2022-11-20T04:56:31;97950.20;;;0.70
67758;BMP180;54562;47.620;18.786;2022-11-20T04:59:40;97958.20;;;0.70
67758;BMP180;54562;47.620;18.786;2022-11-20T05:02:48;97961.20;;;0.70
67758;BMP180;54562;47.620;18.786;2022-11-20T05:06:01;97955.80;;;0.70
67758;BMP180;54562;47.620;18.786;2022-11-20T05:09:09;97952.80;;;0.60
67758;BMP180;54562;47.620;18.786;2022-11-20T05:12:18;97958.00;;;0.60
67758;BMP180;54562;47.620;18.786;2022-11-20T05:15:26;97957.00;;;0.60
67758;BMP180;54562;47.620;18.786;2022-11-20T05:18:35;97959.40;;;0.60
67758;BMP180;54562;47.620;18.786;2022-11-20T05:21:43;97954.80;;;0.56
67758;BMP180;54562;47.620;18.786;2022-11-20T05:24:51;97956.40;;;0.60
67758;BMP180;54562;47.620;18.786;2022-11-20T05:27:59;97959.00;;;0.60
67758;BMP180;54562;47.620;18.786;2022-11-20T05:31:12;97968.20;;;0.60
67758;BMP180;54562;47.620;18.786;2022-11-20T05:34:21;97960.80;;;0.68
67758;BMP180;54562;47.620;18.786;2022-11-20T05:37:30;97963.80;;;0.68
67758;BMP180;54562;47.620;18.786;2022-11-20T05:40:38;97967.60;;;0.60
67758;BMP180;54562;47.620;18.786;2022-11-20T05:43:49;97963.60;;;0.70
67758;BMP180;54562;47.620;18.786;2022-11-20T05:46:57;97965.60;;;0.70
67758;BMP180;54562;47.620;18.786;2022-11-20T05:50:08;97960.80;;;0.70
67758;BMP180;54562;47.620;18.786;2022-11-20T05:53:16;97965.20;;;0.70
67758;BMP180;54562;47.620;18.786;2022-11-20T05:56:25;97967.00;;;0.70
67758;BMP180;54562;47.620;18.786;2022-11-20T05:59:33;97971.80;;;0.70
67758;BMP180;54562;47.620;18.786;2022-11-20T06:02:41;97974.20;;;0.80
67758;BMP180;54562;47.620;18.786;2022-11-20T06:05:49;97978.80;;;0.80
67758;BMP180;54562;47.620;18.786;2022-11-20T06:08:58;97973.00;;;0.80
67758;BMP180;54562;47.620;18.786;2022-11-20T06:12:07;97975.40;;;0.80
67758;BMP180;54562;47.620;18.786;2022-11-20T06:15:15;97980.00;;;0.80
67758;BMP180;54562;47.620;18.786;2022-11-20T06:18:25;97976.00;;;0.80
67758;BMP180;54562;47.620;18.786;2022-11-20T06:21:33;97970.20;;;0.80
67758;BMP180;54562;47.620;18.786;2022-11-20T06:24:41;97969.20;;;0.80
67758;BMP180;54562;47.620;18.786;2022-11-20T06:27:50;97971.80;;;0.84
67758;BMP180;54562;47.620;18.786;2022-11-20T06:30:58;97976.00;;;0.90
67758;BMP180;54562;47.620;18.786;2022-11-20T06:34:07;97978.00;;;0.90
67758;BMP180;54562;47.620;18.786;2022-11-20T06:37:15;97979.20;;;0.96
67758;BMP180;54562;47.620;18.786;2022-11-20T06:40:24;97980.40;;;1.00
67758;BMP180;54562;47.620;18.786;2022-11-20T06:43:32;97990.40;;;1.00
67758;BMP180;54562;47.620;18.786;2022-11-20T06:46:40;97991.80;;;1.00
67758;BMP180;54562;47.620;18.786;2022-11-20T06:49:49;98005.80;;;1.06
67758;BMP180;54562;47.620;18.786;2022-11-20T06:52:57;98023.00;;;1.10
67758;BMP180;54562;47.620;18.786;2022-11-20T06:56:08;98029.40;;;1.10
67758;BMP180;54562;47.620;18.786;2022-11-20T06:59:17;98032.80;;;1.10
67758;BMP180;54562;47.620;18.786;2022-11-20T07:02:28;98028.40;;;1.10
67758;BMP180;54562;47.620;18.786;2022-11-20T07:05:37;98024.20;;;1.10
67758;BMP180;54562;47.620;18.786;2022-11-20T07:08:46;98019.80;;;1.10
67758;BMP180;54562;47.620;18.786;2022-11-20T07:11:54;98024.20;;;1.10
67758;BMP180;54562;47.620;18.786;2022-11-20T07:15:05;98011.80;;;1.10
67758;BMP180;54562;47.620;18.786;2022-11-20T07:18:13;97993.80;;;1.04
67758;BMP180;54562;47.620;18.786;2022-11-20T07:21:21;97995.00;;;1.00
67758;BMP180;54562;47.620;18.786;2022-11-20T07:24:29;98001.80;;;1.00
67758;BMP180;54562;47.620;18.786;2022-11-20T07:27:37;98006.20;;;1.00
67758;BMP180;54562;47.620;18.786;2022-11-20T07:30:51;98002.60;;;1.02
67758;BMP180;54562;47.620;18.786;2022-11-20T07:33:59;98004.20;;;1.10
67758;BMP180;54562;47.620;18.786;2022-11-20T07:37:07;98015.60;;;1.10
67758;BMP180;54562;47.620;18.786;2022-11-20T07:40:17;98008.20;;;1.20
67758;BMP180;54562;47.620;18.786;2022-11-20T07:43:26;98001.40;;;1.22
67758;BMP180;54562;47.620;18.786;2022-11-20T07:46:34;97997.20;;;1.30
67758;BMP180;54562;47.620;18.786;2022-11-20T07:49:43;97992.00;;;1.40
67758;BMP180;54562;47.620;18.786;2022-11-20T07:52:51;97994.80;;;1.40
67758;BMP180;54562;47.620;18.786;2022-11-20T07:56:02;98006.80;;;1.50
67758;BMP180;54562;47.620;18.786;2022-11-20T07:59:10;98004.20;;;1.58
67758;BMP180;54562;47.620;18.786;2022-11-20T08:02:18;98011.00;;;1.60
67758;BMP180;54562;47.620;18.786;2022-11-20T08:05:27;98006.80;;;1.68
67758;BMP180;54562;47.620;18.786;2022-11-20T08:08:37;98000.40;;;1.70
67758;BMP180;54562;47.620;18.786;2022-11-20T08:11:48;97999.40;;;1.80
67758;BMP180;54562;47.620;18.786;2022-11-20T08:15:14;98014.80;;;1.80
67758;BMP180;54562;47.620;18.786;2022-11-20T08:18:22;98015.40;;;1.82
67758;BMP180;54562;47.620;18.786;2022-11-20T08:21:39;98015.00;;;1.90
67758;BMP180;54562;47.620;18.786;2022-11-20T08:24:47;98013.20;;;1.90
67758;BMP180;54562;47.620;18.786;2022-11-20T08:27:55;98011.60;;;1.90
67758;BMP180;54562;47.620;18.786;2022-11-20T08:31:08;98012.20;;;1.96
67758;BMP180;54562;47.620;18.786;2022-11-20T08:34:18;98020.80;;;2.00
67758;BMP180;54562;47.620;18.786;2022-11-20T08:37:27;98031.40;;;2.00
67758;BMP180;54562;47.620;18.786;2022-11-20T08:40:36;98030.20;;;2.00
67758;BMP180;54562;47.620;18.786;2022-11-20T08:43:45;98038.00;;;2.10
67758;BMP180;54562;47.620;18.786;2022-11-20T08:46:53;98035.00;;;2.10
67758;BMP180;54562;47.620;18.786;2022-11-20T08:50:01;98040.60;;;2.10
67758;BMP180;54562;47.620;18.786;2022-11-20T08:53:10;98035.80;;;2.10
67758;BMP180;54562;47.620;18.786;2022-11-20T08:56:19;98042.20;;;2.20
67758;BMP180;54562;47.620;18.786;2022-11-20T08:59:27;98038.20;;;2.20
67758;BMP180;54562;47.620;18.786;2022-11-20T09:02:57;98038.80;;;2.22
67758;BMP180;54562;47.620;18.786;2022-11-20T09:06:08;98039.40;;;2.30
67758;BMP180;54562;47.620;18.786;2022-11-20T09:09:16;98052.60;;;2.30
67758;BMP180;54562;47.620;18.786;2022-11-20T09:12:27;98061.40;;;2.38
67758;BMP180;54562;47.620;18.786;2022-11-20T09:15:35;98060.20;;;2.40
67758;BMP180;54562;47.620;18.786;2022-11-20T09:18:43;98067.40;;;2.42
67758;BMP180;54562;47.620;18.786;2022-11-20T09:21:52;98066.20;;;2.50
67758;BMP180;54562;47.620;18.786;2022-11-20T09:25:06;98069.20;;;2.60
67758;BMP180;54562;47.620;18.786;2022-11-20T09:28:15;98069.40;;;2.66
67758;BMP180;54562;47.620;18.786;2022-11-20T09:31:28;98065.80;;;2.70
67758;BMP180;54562;47.620;18.786;2022-11-20T09:34:37;98070.40;;;2.80
67758;BMP180;54562;47.620;18.786;2022-11-20T09:37:45;98068.00;;;2.80
67758;BMP180;54562;47.620;18.786;2022-11-20T09:41:02;98071.40;;;2.90
67758;BMP180;54562;47.620;18.786;2022-11-20T09:44:32;98070.00;;;2.90
67758;BMP180;54562;47.620;18.786;2022-11-20T09:48:10;98065.80;;;2.90
67758;BMP180;54562;47.620;18.786;2022-11-20T09:51:34;98059.80;;;3.00
67758;BMP180;54562;47.620;18.786;2022-11-20T09:54:45;98064.20;;;3.10
67758;BMP180;54562;47.620;18.786;2022-11-20T09:57:55;98062.40;;;3.12
67758;BMP180;54562;47.620;18.786;2022-11-20T10:01:15;98063.20;;;3.20
67758;BMP180;54562;47.620;18.786;2022-11-20T10:04:25;98062.00;;;3.30
67758;BMP180;54562;47.620;18.786;2022-11-20T10:07:44;98057.40;;;3.40
67758;BMP180;54562;47.620;18.786;2022-11-20T10:11:03;98058.20;;;3.50
67758;BMP180;54562;47.620;18.786;2022-11-20T10:14:25;98045.20;;;3.60
67758;BMP180;54562;47.620;18.786;2022-11-20T10:18:07;98035.60;;;3.70
67758;BMP180;54562;47.620;18.786;2022-11-20T10:21:30;98031.40;;;3.90
67758;BMP180;54562;47.620;18.786;2022-11-20T10:24:52;98030.60;;;4.00
67758;BMP180;54562;47.620;18.786;2022-11-20T10:31:42;98032.80;;;4.30
67758;BMP180;54562;47.620;18.786;2022-11-20T10:34:57;98030.80;;;4.34
67758;BMP180;54562;47.620;18.786;2022-11-20T10:38:14;98025.20;;;4.40
67758;BMP180;54562;47.620;18.786;2022-11-20T10:41:30;98027.20;;;4.60
67758;BMP180;54562;47.620;18.786;2022-11-20T10:44:50;98027.40;;;4.70
67758;BMP180;54562;47.620;18.786;2022-11-20T10:48:22;98017.20;;;4.80
67758;BMP180;54562;47.620;18.786;2022-11-20T10:51:43;98005.00;;;4.90
67758;BMP180;54562;47.620;18.786;2022-11-20T10:55:01;98002.00;;;4.98
67758;BMP180;54562;47.620;18.786;2022-11-20T10:58:16;97997.40;;;5.00
67758;BMP180;54562;47.620;18.786;2022-11-20T11:01:26;98007.00;;;5.10
67758;BMP180;54562;47.620;18.786;2022-11-20T11:04:42;97998.40;;;5.10
67758;BMP180;54562;47.620;18.786;2022-11-20T11:07:55;98004.20;;;5.00
67758;BMP180;54562;47.620;18.786;2022-11-20T11:11:15;98006.20;;;4.90
67758;BMP180;54562;47.620;18.786;2022-11-20T11:14:26;98012.80;;;4.90
67758;BMP180;54562;47.620;18.786;2022-11-20T11:17:35;98026.40;;;5.00
67758;BMP180;54562;47.620;18.786;2022-11-20T11:20:54;98028.40;;;5.00
67758;BMP180;54562;47.620;18.786;2022-11-20T11:24:14;98036.00;;;5.00
67758;BMP180;54562;47.620;18.786;2022-11-20T11:27:52;98024.80;;;5.00
67758;BMP180;54562;47.620;18.786;2022-11-20T11:31:02;98028.60;;;5.00
67758;BMP180;54562;47.620;18.786;2022-11-20T11:34:14;98033.00;;;5.00
67758;BMP180;54562;47.620;18.786;2022-11-20T11:37:24;98037.00;;;5.00
67758;BMP180;54562;47.620;18.786;2022-11-20T11:40:39;98033.80;;;5.00
67758;BMP180;54562;47.620;18.786;2022-11-20T11:43:55;98030.60;;;5.00
67758;BMP180;54562;47.620;18.786;2022-11-20T11:47:25;98033.60;;;5.00
67758;BMP180;54562;47.620;18.786;2022-11-20T11:50:34;98024.80;;;5.00
67758;BMP180;54562;47.620;18.786;2022-11-20T11:53:45;98024.60;;;5.00
67758;BMP180;54562;47.620;18.786;2022-11-20T11:56:57;98018.80;;;5.00
67758;BMP180;54562;47.620;18.786;2022-11-20T12:00:11;98016.80;;;5.02
67758;BMP180;54562;47.620;18.786;2022-11-20T12:03:27;98010.40;;;5.10
67758;BMP180;54562;47.620;18.786;2022-11-20T12:06:42;97997.00;;;5.10
67758;BMP180;54562;47.620;18.786;2022-11-20T12:09:56;97988.80;;;5.18
67758;BMP180;54562;47.620;18.786;2022-11-20T12:13:20;97988.80;;;5.20
67758;BMP180;54562;47.620;18.786;2022-11-20T12:16:32;97987.40;;;5.20
67758;BMP180;54562;47.620;18.786;2022-11-20T12:19:42;97992.20;;;5.30
67758;BMP180;54562;47.620;18.786;2022-11-20T12:23:02;97995.00;;;5.30
67758;BMP180;54562;47.620;18.786;2022-11-20T12:26:31;97994.20;;;5.40
67758;BMP180;54562;47.620;18.786;2022-11-20T12:29:59;97993.40;;;5.42
67758;BMP180;54562;47.620;18.786;2022-11-20T12:36:48;97984.00;;;5.60
67758;BMP180;54562;47.620;18.786;2022-11-20T12:40:06;97978.00;;;5.60
67758;BMP180;54562;47.620;18.786;2022-11-20T12:43:26;97966.60;;;5.60
67758;BMP180;54562;47.620;18.786;2022-11-20T12:47:07;97970.00;;;5.50
67758;BMP180;54562;47.620;18.786;2022-11-20T12:50:31;97971.60;;;5.40
67758;BMP180;54562;47.620;18.786;2022-11-20T12:54:19;97964.80;;;5.30
67758;BMP180;54562;47.620;18.786;2022-11-20T12:57:46;97966.20;;;5.26
67758;BMP180;54562;47.620;18.786;2022-11-20T13:01:05;97968.00;;;5.36
67758;BMP180;54562;47.620;18.786;2022-11-20T13:05:16;97968.80;;;5.64
67758;BMP180;54562;47.620;18.786;2022-11-20T13:08:29;97973.40;;;5.94
67758;BMP180;54562;47.620;18.786;2022-11-20T13:11:47;97963.00;;;6.20
67758;BMP180;54562;47.620;18.786;2022-11-20T13:15:07;97958.00;;;6.40
67758;BMP180;54562;47.620;18.786;2022-11-20T13:18:19;97961.60;;;6.48
67758;BMP180;54562;47.620;18.786;2022-11-20T13:21:41;97958.00;;;6.50
67758;BMP180;54562;47.620;18.786;2022-11-20T13:24:56;97965.40;;;6.60
67758;BMP180;54562;47.620;18.786;2022-11-20T13:28:29;97973.40;;;6.70
67758;BMP180;54562;47.620;18.786;2022-11-20T13:31:42;97970.20;;;6.70
67758;BMP180;54562;47.620;18.786;2022-11-20T13:35:02;97969.40;;;6.60
67758;BMP180;54562;47.620;18.786;2022-11-20T13:38:10;97967.00;;;6.70
67758;BMP180;54562;47.620;18.786;2022-11-20T13:41:30;97965.80;;;6.70
67758;BMP180;54562;47.620;18.786;2022-11-20T13:44:46;97956.80;;;6.70
67758;BMP180;54562;47.620;18.786;2022-11-20T13:47:57;97957.60;;;6.60
67758;BMP180;54562;47.620;18.786;2022-11-20T13:51:14;97958.20;;;6.42
67758;BMP180;54562;47.620;18.786;2022-11-20T13:54:49;97952.60;;;6.40
67758;BMP180;54562;47.620;18.786;2022-11-20T13:58:20;97948.00;;;6.38
67758;BMP180;54562;47.620;18.786;2022-11-20T14:01:35;97943.60;;;6.30
67758;BMP180;54562;47.620;18.786;2022-11-20T14:04:54;97941.00;;;6.30
67758;BMP180;54562;47.620;18.786;2022-11-20T14:08:17;97946.00;;;6.22
67758;BMP180;54562;47.620;18.786;2022-11-20T14:11:30;97956.60;;;6.12
67758;BMP180;54562;47.620;18.786;2022-11-20T14:14:52;97955.40;;;6.18
67758;BMP180;54562;47.620;18.786;2022-11-20T14:18:14;97954.80;;;6.00
67758;BMP180;54562;47.620;18.786;2022-11-20T14:21:28;97956.60;;;5.90
67758;BMP180;54562;47.620;18.786;2022-11-20T14:24:38;97956.60;;;5.70
67758;BMP180;54562;47.620;18.786;2022-11-20T14:27:52;97962.80;;;5.40
67758;BMP180;54562;47.620;18.786;2022-11-20T14:31:00;97968.00;;;5.10
67758;BMP180;54562;47.620;18.786;2022-11-20T14:34:15;97967.60;;;4.90
67758;BMP180;54562;47.620;18.786;2022-11-20T14:37:27;97965.80;;;4.70
67758;BMP180;54562;47.620;18.786;2022-11-20T14:40:38;97968.20;;;4.50
67758;BMP180;54562;47.620;18.786;2022-11-20T14:43:53;97966.00;;;4.40
67758;BMP180;54562;47.620;18.786;2022-11-20T14:47:04;97971.20;;;4.26
67758;BMP180;54562;47.620;18.786;2022-11-20T14:50:19;97975.20;;;4.12
67758;BMP180;54562;47.620;18.786;2022-11-20T14:53:28;97974.40;;;4.00
67758;BMP180;54562;47.620;18.786;2022-11-20T14:56:36;97970.80;;;3.90
67758;BMP180;54562;47.620;18.786;2022-11-20T14:59:45;97971.20;;;3.80
67758;BMP180;54562;47.620;18.786;2022-11-20T15:02:54;97980.00;;;3.76
67758;BMP180;54562;47.620;18.786;2022-11-20T15:06:02;97983.80;;;3.66
67758;BMP180;54562;47.620;18.786;2022-11-20T15:09:16;97981.00;;;3.60
67758;BMP180;54562;47.620;18.786;2022-11-20T15:12:25;97984.80;;;3.50
67758;BMP180;54562;47.620;18.786;2022-11-20T15:15:39;97987.80;;;3.50
67758;BMP180;54562;47.620;18.786;2022-11-20T15:18:50;97984.80;;;3.40
67758;BMP180;54562;47.620;18.786;2022-11-20T15:21:59;97987.80;;;3.40
67758;BMP180;54562;47.620;18.786;2022-11-20T15:25:15;97985.20;;;3.30
67758;BMP180;54562;47.620;18.786;2022-11-20T15:28:29;97980.60;;;3.30
67758;BMP180;54562;47.620;18.786;2022-11-20T15:31:38;97978.60;;;3.30
67758;BMP180;54562;47.620;18.786;2022-11-20T15:34:48;97980.00;;;3.22
67758;BMP180;54562;47.620;18.786;2022-11-20T15:37:57;97986.80;;;3.20
67758;BMP180;54562;47.620;18.786;2022-11-20T15:41:06;97985.00;;;3.20
67758;BMP180;54562;47.620;18.786;2022-11-20T15:44:15;97984.80;;;3.14
67758;BMP180;54562;47.620;18.786;2022-11-20T15:47:30;97988.40;;;3.14
67758;BMP180;54562;47.620;18.786;2022-11-20T15:50:46;97985.20;;;3.10
67758;BMP180;54562;47.620;18.786;2022-11-20T15:53:58;97983.40;;;3.10
67758;BMP180;54562;47.620;18.786;2022-11-20T15:57:06;97982.60;;;3.10
67758;BMP180;54562;47.620;18.786;2022-11-20T16:00:17;97979.40;;;3.10
67758;BMP180;54562;47.620;18.786;2022-11-20T16:03:29;97975.80;;;3.08
67758;BMP180;54562;47.620;18.786;2022-11-20T16:06:37;97975.60;;;3.08
67758;BMP180;54562;47.620;18.786;2022-11-20T16:09:45;97977.80;;;3.08
67758;BMP180;54562;47.620;18.786;2022-11-20T16:12:54;97974.80;;;3.00
67758;BMP180;54562;47.620;18.786;2022-11-20T16:16:28;97970.60;;;3.00
67758;BMP180;54562;47.620;18.786;2022-11-20T16:19:37;97972.20;;;2.98
67758;BMP180;54562;47.620;18.786;2022-11-20T16:22:46;97968.40;;;2.90
67758;BMP180;54562;47.620;18.786;2022-11-20T16:25:54;97967.40;;;2.90
67758;BMP180;54562;47.620;18.786;2022-11-20T16:29:04;97963.40;;;2.90
67758;BMP180;54562;47.620;18.786;2022-11-20T16:32:13;97970.40;;;2.80
67758;BMP180;54562;47.620;18.786;2022-11-20T16:35:22;97970.60;;;2.80
67758;BMP180;54562;47.620;18.786;2022-11-20T16:38:31;97975.40;;;2.72
67758;BMP180;54562;47.620;18.786;2022-11-20T16:41:39;97981.20;;;2.70
67758;BMP180;54562;47.620;18.786;2022-11-20T16:44:49;97984.00;;;2.70
67758;BMP180;54562;47.620;18.786;2022-11-20T16:47:57;97986.00;;;2.60
67758;BMP180;54562;47.620;18.786;2022-11-20T16:51:09;97986.60;;;2.60
67758;BMP180;54562;47.620;18.786;2022-11-20T16:54:18;97978.60;;;2.60
67758;BMP180;54562;47.620;18.786;2022-11-20T16:57:30;97969.80;;;2.50
67758;BMP180;54562;47.620;18.786;2022-11-20T17:00:40;97964.80;;;2.50
67758;BMP180;54562;47.620;18.786;2022-11-20T17:03:59;97959.80;;;2.40
67758;BMP180;54562;47.620;18.786;2022-11-20T17:07:08;97957.60;;;2.40
67758;BMP180;54562;47.620;18.786;2022-11-20T17:10:18;97955.40;;;2.40
67758;BMP180;54562;47.620;18.786;2022-11-20T17:13:26;97950.80;;;2.40
67758;BMP180;54562;47.620;18.786;2022-11-20T17:16:35;97946.60;;;2.40
67758;BMP180;54562;47.620;18.786;2022-11-20T17:19:47;97943.60;;;2.36
67758;BMP180;54562;47.620;18.786;2022-11-20T17:22:58;97943.80;;;2.40
67758;BMP180;54562;47.620;18.786;2022-11-20T17:26:08;97947.80;;;2.38
67758;BMP180;54562;47.620;18.786;2022-11-20T17:29:18;97943.40;;;2.32
67758;BMP180;54562;47.620;18.786;2022-11-20T17:32:30;97940.60;;;2.30
67758;BMP180;54562;47.620;18.786;2022-11-20T17:35:39;97939.00;;;2.30
67758;BMP180;54562;47.620;18.786;2022-11-20T17:38:48;97927.80;;;2.30
67758;BMP180;54562;47.620;18.786;2022-11-20T17:41:57;97925.60;;;2.24
67758;BMP180;54562;47.620;18.786;2022-11-20T17:45:24;97924.80;;;2.20
67758;BMP180;54562;47.620;18.786;2022-11-20T17:48:34;97927.20;;;2.20
67758;BMP180;54562;47.620;18.786;2022-11-20T17:51:42;97930.80;;;2.14
67758;BMP180;54562;47.620;18.786;2022-11-20T17:54:51;97930.60;;;2.10
67758;BMP180;54562;47.620;18.786;2022-11-20T17:58:01;97923.20;;;2.10
67758;BMP180;54562;47.620;18.786;2022-11-20T18:01:13;97916.80;;;2.00
67758;BMP180;54562;47.620;18.786;2022-11-20T18:04:21;97911.00;;;2.00
67758;BMP180;54562;47.620;18.786;2022-11-20T18:07:30;97908.80;;;1.98
67758;BMP180;54562;47.620;18.786;2022-11-20T18:10:47;97905.60;;;1.90
67758;BMP180;54562;47.620;18.786;2022-11-20T18:13:55;97904.20;;;1.90
67758;BMP180;54562;47.620;18.786;2022-11-20T18:17:21;97917.80;;;1.84
67758;BMP180;54562;47.620;18.786;2022-11-20T18:20:30;97923.20;;;1.80
67758;BMP180;54562;47.620;18.786;2022-11-20T18:23:45;97918.00;;;1.80
67758;BMP180;54562;47.620;18.786;2022-11-20T18:26:54;97926.80;;;1.80
67758;BMP180;54562;47.620;18.786;2022-11-20T18:30:03;97929.40;;;1.70
67758;BMP180;54562;47.620;18.786;2022-11-20T18:33:12;97929.40;;;1.70
67758;BMP180;54562;47.620;18.786;2022-11-20T18:36:23;97926.80;;;1.70
67758;BMP180;54562;47.620;18.786;2022-11-20T18:39:32;97931.80;;;1.64